Latest Weather Observations for Richmond

IDQ60801

Issued at 7:02 am EST Tuesday 26 May 2015 (issued every 30 minutes, with the page automatically refreshed every 10 minutes)

About weather observations | Map of weather stations | Latest weather observations for QLD | Other Formats
Station Details ID: 030161 Name: RICHMOND AIRPORT Lat: -20.70 Lon: 143.12 Height: 206.3 m
Data from the previous 72 hours. | See also: Recent months at Richmond
Date/Time
EST
Temp
°C
App
Temp
°C
Dew
Point
Rel
Hum
%
Delta-T
°C
Wind Press
QNH
hPa
Press
MSL
hPa
Rain
since 9 am
mm
Dir
 
Spd
km/h
Gust
km/h
Spd
kts
Gust
kts
26/07:00am 15.2 12.9 10.6 74 2.4 E 13 13 7 7 1021.8 1021.1 0.0
26/06:30am 15.7 13.4 10.5 71 2.8 ESE 13 15 7 8 1021.7 1021.0 0.0
26/06:00am 16.1 13.9 10.8 71 2.8 ESE 13 15 7 8 1021.5 1020.8 0.0
26/05:30am 15.9 13.6 10.4 70 2.9 ESE 13 15 7 8 1021.3 1020.6 0.0
26/05:00am 15.8 13.7 9.9 68 3.1 ESE 11 13 6 7 1021.3 1020.6 0.0
26/04:30am 16.0 13.8 9.4 65 3.4 E 11 13 6 7 1021.1 1020.4 0.0
26/04:00am 16.3 14.2 9.9 66 3.4 ESE 11 13 6 7 1021.2 1020.5 0.0
26/03:30am 17.1 14.8 10.5 65 3.6 ESE 13 13 7 7 1021.2 1020.5 0.0
26/03:00am 17.7 15.4 10.3 62 4.0 ESE 13 15 7 8 1021.4 1020.7 0.0
26/02:30am 18.9 16.7 10.7 59 4.5 ESE 13 15 7 8 1021.6 1020.9 0.0
26/02:00am 20.1 17.7 11.3 57 4.9 E 15 19 8 10 1021.6 1020.9 0.0
26/01:30am 19.6 17.6 11.4 59 4.5 E 13 17 7 9 1021.7 1021.0 0.0
26/01:00am 18.6 16.3 10.4 59 4.4 ESE 13 15 7 8 1021.7 1021.0 0.0
26/12:30am 19.8 17.7 11.3 58 4.7 E 13 15 7 8 1021.6 1020.9 0.0
26/12:00am 20.0 18.3 11.2 57 4.9 E 11 13 6 7 1021.5 1020.8 0.0
 
Date/Time
EST
Temp
°C
App
Temp
°C
Dew
Point
Rel
Hum
%
Delta-T
°C
Wind Press
QNH
hPa
Press
MSL
hPa
Rain
since 9 am
mm
Dir
 
Spd
km/h
Gust
km/h
Spd
kts
Gust
kts
25/11:30pm 20.6 18.7 11.8 57 4.9 E 13 15 7 8 1021.6 1020.9 0.0
25/11:00pm 20.5 18.4 11.2 55 5.1 ESE 13 15 7 8 1021.7 1021.0 0.0
25/10:30pm 21.2 18.8 11.5 54 5.4 ESE 15 17 8 9 1021.4 1020.7 0.0
25/10:00pm 21.3 19.4 10.5 50 5.9 SE 11 13 6 7 1021.3 1020.6 0.0
25/09:30pm 23.9 21.7 12.2 48 6.7 E 15 19 8 10 1021.1 1020.4 0.0
25/09:00pm 24.4 21.9 12.4 47 6.9 E 17 20 9 11 1020.9 1020.1 0.0
25/08:30pm 24.6 22.0 11.9 45 7.3 ESE 17 20 9 11 1020.8 1020.0 0.0
25/08:00pm 25.6 23.0 12.1 43 7.8 ESE 17 20 9 11 1020.4 1019.6 0.0
25/07:30pm 26.3 23.3 12.0 41 8.3 E 19 24 10 13 1020.0 1019.2 0.0
25/07:00pm 26.0 23.3 11.7 41 8.2 ESE 17 20 9 11 1019.4 1018.7 0.0
25/06:30pm 26.4 23.6 11.3 39 8.6 ESE 17 19 9 10 1018.9 1018.2 0.0
25/06:00pm 27.6 24.5 11.6 37 9.2 ESE 19 24 10 13 1018.6 1017.9 0.0
25/05:30pm 28.8 25.2 11.8 35 9.9 ESE 22 28 12 15 1018.3 1017.6 0.0
25/05:00pm 29.4 26.4 11.9 34 10.2 ESE 19 26 10 14 1018.2 1017.5 0.0
25/04:30pm 29.6 26.9 11.6 33 10.5 E 17 24 9 13 1018.1 1017.4 0.0
25/04:00pm 30.0 26.9 11.5 32 10.8 E 19 30 10 16 1018.1 1017.4 0.0
25/03:30pm 30.2 27.5 11.7 32 10.8 ESE 17 24 9 13 1018.0 1017.3 0.0
25/03:00pm 29.7 27.0 11.7 33 10.5 ESE 17 26 9 14 1018.0 1017.3 0.0
25/02:30pm 30.4 28.9 11.9 32 10.9 ENE 11 19 6 10 1018.3 1017.6 0.0
25/02:00pm 29.4 27.4 11.5 33 10.4 NNE 13 20 7 11 1018.5 1017.8 0.0
25/01:30pm 29.4 27.4 11.5 33 10.4 NE 13 19 7 10 1019.2 1018.5 0.0
25/01:00pm 29.5 27.7 13.3 37 9.7 ENE 15 26 8 14 1019.8 1019.0 0.0
25/12:30pm 28.9 25.6 12.8 37 9.6 ENE 22 35 12 19 1020.5 1019.7 0.0
25/12:00pm 28.8 26.8 13.9 40 9.0 NE 17 28 9 15 1020.9 1020.1 0.0
25/11:30am 27.3 23.8 13.3 42 8.3 ENE 24 35 13 19 1021.3 1020.6 0.0
25/11:00am 26.6 23.2 13.7 45 7.7 ENE 24 35 13 19 1021.9 1021.2 0.0
25/10:30am 25.7 22.4 13.9 48 7.0 ENE 24 39 13 21 1022.4 1021.7 0.0
25/10:00am 25.4 21.6 14.8 52 6.4 ENE 28 39 15 21 1022.5 1021.8 0.0
25/09:30am 23.9 21.0 15.1 58 5.3 ENE 24 32 13 17 1022.6 1021.9 0.0
25/09:00am 23.1 20.3 15.4 62 4.6 ENE 24 35 13 19 1022.4 1021.7 0.0
25/08:30am 21.9 19.2 15.5 67 3.9 E 24 33 13 18 1022.3 1021.6 0.0
25/08:00am 19.8 17.9 15.2 75 2.7 E 19 28 10 15 1022.1 1021.4 0.0
25/07:30am 17.8 16.8 14.5 81 1.9 E 13 17 7 9 1022.0 1021.3 0.0
25/07:00am 16.9 15.3 14.0 83 1.7 ESE 15 17 8 9 1021.8 1021.1 0.0
25/06:30am 16.9 15.3 14.0 83 1.7 E 15 19 8 10 1021.5 1020.8 0.0
25/06:00am 16.7 15.4 13.6 82 1.8 E 13 15 7 8 1021.2 1020.5 0.0
25/05:30am 17.5 16.4 14.2 81 1.9 E 13 15 7 8 1020.9 1020.1 0.0
25/05:00am 17.4 16.2 14.1 81 1.9 ESE 13 17 7 9 1020.7 1019.9 0.0
25/04:30am 17.9 16.5 14.4 80 2.0 E 15 20 8 11 1020.6 1019.8 0.0
25/04:00am 18.4 16.2 14.5 78 2.3 E 19 22 10 12 1020.3 1019.5 0.0
25/03:30am 18.9 17.6 14.8 77 2.4 E 15 22 8 12 1020.5 1019.7 0.0
25/03:00am 19.5 18.3 15.0 75 2.7 E 15 19 8 10 1020.5 1019.7 0.0
25/02:30am 19.5 17.8 14.7 74 2.8 E 17 22 9 12 1020.4 1019.6 0.0
25/02:00am 19.9 17.6 14.7 72 3.1 E 20 26 11 14 1020.7 1019.9 0.0
25/01:30am 20.1 17.7 14.5 70 3.3 E 20 30 11 16 1021.0 1020.2 0.0
25/01:00am 20.2 17.9 14.1 68 3.6 E 19 28 10 15 1020.8 1020.0 0.0
25/12:30am 20.5 17.9 13.9 66 3.8 E 20 26 11 14 1020.6 1019.8 0.0
25/12:00am 20.9 17.5 13.8 64 4.1 E 24 32 13 17 1020.6 1019.8 0.0
 
Date/Time
EST
Temp
°C
App
Temp
°C
Dew
Point
Rel
Hum
%
Delta-T
°C
Wind Press
QNH
hPa
Press
MSL
hPa
Rain
since 9 am
mm
Dir
 
Spd
km/h
Gust
km/h
Spd
kts
Gust
kts
24/11:30pm 21.4 17.8 14.1 63 4.3 ENE 26 33 14 18 1020.7 1019.9 0.0
24/11:00pm 21.7 18.6 14.6 64 4.2 ENE 24 35 13 19 1020.7 1019.9 0.0
24/10:30pm 21.7 18.6 14.6 64 4.2 ENE 24 33 13 18 1020.6 1019.8 0.0
24/10:00pm 22.1 18.7 14.7 63 4.4 E 26 32 14 17 1020.6 1019.8 0.0
24/09:30pm 22.3 18.6 13.9 59 4.9 E 26 33 14 18 1020.4 1019.6 0.0
24/09:00pm 22.6 18.5 13.9 58 5.1 E 28 35 15 19 1020.1 1019.3 0.0
24/08:30pm 23.3 18.7 13.5 54 5.7 E 30 39 16 21 1019.9 1019.1 0.0
24/08:00pm 23.7 19.4 13.3 52 6.1 E 28 37 15 20 1019.7 1018.9 0.0
24/07:30pm 24.3 20.3 12.9 49 6.6 ESE 26 33 14 18 1019.1 1018.4 0.0
24/07:00pm 25.1 20.0 12.0 44 7.5 ESE 30 37 16 20 1018.9 1018.2 0.0
24/06:56pm 25.1 20.1 10.9 41 8.0 ESE 28 37 15 20 1018.8 1018.1 0.0
24/06:30pm 24.7 20.9 7.4 33 9.2 ESE 17 19 9 10 1018.4 1017.7 0.0
24/06:00pm 26.3 22.2 6.3 28 10.5 ESE 17 24 9 13 1017.9 1017.2 0.0
24/05:30pm 27.7 23.2 7.0 27 11.1 E 20 24 11 13 1017.7 1017.0 0.0
24/05:00pm 28.4 23.5 7.1 26 11.5 E 22 28 12 15 1017.3 1016.6 0.0
24/04:30pm 29.0 23.7 7.0 25 11.9 E 24 35 13 19 1017.0 1016.3 0.0
24/04:00pm 29.8 26.0 7.7 25 12.1 E 17 32 9 17 1017.1 1016.4 0.0
24/03:30pm 29.3 25.7 6.7 24 12.2 ENE 15 24 8 13 1017.1 1016.4 0.0
24/03:00pm 29.7 25.8 7.0 24 12.3 ENE 17 28 9 15 1016.9 1016.2 0.0
24/02:30pm 29.4 24.8 6.7 24 12.2 E 20 35 11 19 1017.0 1016.3 0.0
24/02:00pm 29.3 24.8 6.0 23 12.4 NE 19 32 10 17 1017.2 1016.5 0.0
24/01:30pm 28.9 24.3 6.3 24 12.1 ENE 20 28 11 15 1017.7 1017.0 0.0
24/01:00pm 27.7 23.4 7.0 27 11.1 E 19 28 10 15 1018.3 1017.6 0.0
24/12:30pm 27.3 22.6 6.1 26 11.2 ENE 20 37 11 20 1019.1 1018.4 0.0
24/12:00pm 25.7 19.4 5.8 28 10.3 E 28 37 15 20 1019.8 1019.0 0.0
24/11:30am 25.1 20.5 6.3 30 9.8 ENE 20 32 11 17 1020.2 1019.4 0.0
24/11:00am 23.5 18.4 5.9 32 9.0 ENE 22 35 12 19 1020.5 1019.7 0.0
24/10:30am 22.7 17.3 6.5 35 8.4 ENE 24 35 13 19 1020.6 1019.8 0.0
24/10:00am 21.5 15.9 7.0 39 7.5 ENE 26 37 14 20 1020.7 1019.9 0.0
24/09:45am 20.9 14.9 7.2 41 7.1 E 28 46 15 25 1020.7 1019.9 0.0
24/09:30am 20.7 15.1 7.3 42 6.9 ENE 26 41 14 22 1020.6 1019.8 0.0
24/09:00am 19.8 12.6 7.5 45 6.3 E 35 50 19 27 1020.3 1019.5 0.0
24/08:30am 17.9 13.0 7.0 49 5.5 E 22 35 12 19 1020.3 1019.5 0.0
24/08:00am 14.7 9.3 4.4 50 4.8 E 22 28 12 15 1020.0 1019.2 0.0
24/07:30am 12.5 7.8 3.2 53 4.2 ESE 17 22 9 12 1019.9 1019.1 0.0
24/07:00am 11.9 6.8 3.2 55 3.9 ESE 19 22 10 12 1019.6 1018.8 0.0
24/06:30am 11.1 6.6 2.4 55 3.8 ESE 15 19 8 10 1019.3 1018.6 0.0
24/06:00am 11.2 6.3 1.7 52 4.1 ESE 17 20 9 11 1019.0 1018.3 0.0
24/05:30am 11.7 6.8 1.9 51 4.2 ESE 17 20 9 11 1018.6 1017.9 0.0
24/05:00am 11.7 6.7 1.4 49 4.4 ESE 17 20 9 11 1018.7 1018.0 0.0
24/04:30am 12.2 6.8 1.5 48 4.6 ESE 19 22 10 12 1018.9 1018.2 0.0
24/04:00am 11.6 6.9 1.0 48 4.5 ESE 15 17 8 9 1018.8 1018.1 0.0
24/03:30am 11.3 6.7 1.8 52 4.1 ESE 15 17 8 9 1018.8 1018.1 0.0
24/03:00am 8.3 3.8 -2.9 45 4.2 ESE 11 13 6 7 1019.1 1018.4 0.0
24/02:30am 11.2 7.0 -0.6 44 4.8 ESE 11 15 6 8 1019.4 1018.7 0.0
24/02:00am 12.9 8.2 0.6 43 5.2 ESE 15 17 8 9 1019.3 1018.6 0.0
24/01:30am 12.6 7.8 0.0 42 5.3 ESE 15 19 8 10 1019.6 1018.8 0.0
24/01:00am 12.4 7.9 -0.5 41 5.3 ESE 13 15 7 8 1019.9 1019.1 0.0
24/12:30am 13.5 8.6 -0.2 39 5.7 ESE 15 17 8 9 1019.9 1019.1 0.0
24/12:00am 13.9 9.0 -0.2 38 5.9 ESE 15 19 8 10 1020.1 1019.3 0.0
 
Date/Time
EST
Temp
°C
App
Temp
°C
Dew
Point
Rel
Hum
%
Delta-T
°C
Wind Press
QNH
hPa
Press
MSL
hPa
Rain
since 9 am
mm
Dir
 
Spd
km/h
Gust
km/h
Spd
kts
Gust
kts
23/11:30pm 14.3 9.4 -0.2 37 6.1 ESE 15 19 8 10 1020.0 1019.2 0.0
23/11:00pm 15.5 9.9 -0.3 34 6.7 ESE 19 22 10 12 1020.0 1019.2 0.0
23/10:30pm 16.6 10.8 -0.1 32 7.2 ESE 20 24 11 13 1020.0 1019.2 0.0
23/10:00pm 16.6 11.0 -0.1 32 7.2 ESE 19 22 10 12 1019.9 1019.1 0.0
23/09:30pm 17.1 11.2 -0.6 30 7.6 ESE 20 24 11 13 1019.6 1018.8 0.0
23/09:00pm 18.0 11.7 -0.8 28 8.1 ESE 22 28 12 15 1019.4 1018.7 0.0
23/08:30pm 17.8 11.9 -0.5 29 7.9 SE 20 24 11 13 1019.4 1018.7 0.0
23/08:00pm 15.7 10.9 -2.3 29 7.3 SE 13 15 7 8 1019.4 1018.7 0.0
23/07:30pm 18.0 12.2 -1.8 26 8.4 SE 19 20 10 11 1019.1 1018.4 0.0
23/07:00pm 19.4 13.7 -1.1 25 8.9 SE 19 22 10 12 1018.8 1018.1 0.0
23/06:30pm 20.5 14.7 -1.3 23 9.5 ESE 19 22 10 12 1018.5 1017.8 0.0
23/06:00pm 22.0 16.0 -1.3 21 10.3 ESE 20 30 11 16 1018.1 1017.4 0.0
23/05:30pm 23.2 16.0 -1.7 19 11.0 ESE 26 35 14 19 1017.9 1017.2 0.0
23/05:00pm 24.1 16.6 -1.7 18 11.5 SE 28 35 15 19 1017.7 1017.0 0.0
23/04:30pm 24.6 17.1 -1.3 18 11.7 ESE 28 39 15 21 1017.3 1016.6 0.0
23/04:00pm 25.0 17.2 -0.9 18 11.8 SE 30 39 16 21 1017.3 1016.6 0.0
23/03:30pm 25.2 17.3 -1.6 17 12.1 ESE 30 39 16 21 1017.5 1016.8 0.0
23/03:00pm 25.4 18.0 -0.6 18 12.0 ESE 28 37 15 20 1017.6 1016.9 0.0
23/02:30pm 24.9 16.7 -1.0 18 11.8 ESE 32 43 17 23 1017.8 1017.1 0.0
23/02:00pm 25.0 18.0 1.8 22 11.1 E 28 39 15 21 1018.3 1017.6 0.0
23/01:30pm 23.7 16.3 2.0 24 10.4 ESE 30 43 16 23 1018.9 1018.2 0.0
23/01:00pm 23.1 15.7 2.0 25 10.0 ESE 30 39 16 21 1019.3 1018.6 0.0
23/12:30pm 22.6 15.0 2.7 27 9.6 E 32 43 17 23 1020.0 1019.2 0.0
23/12:00pm 21.5 13.9 2.7 29 8.9 ESE 32 41 17 22 1020.6 1019.8 0.0
23/11:30am 19.7 12.2 3.4 34 7.8 ESE 32 39 17 21 1021.1 1020.4 0.0
23/11:00am 18.6 12.3 3.6 37 7.1 ESE 26 33 14 18 1021.6 1020.9 0.0
23/10:30am 17.6 10.6 4.2 41 6.4 E 30 39 16 21 1021.8 1021.1 0.0
23/10:00am 16.7 9.4 4.4 44 5.8 E 32 37 17 20 1022.2 1021.5 0.0
23/09:30am 15.7 8.2 4.4 47 5.3 ESE 33 41 18 22 1022.3 1021.6 0.0
23/09:00am 14.4 7.8 4.1 50 4.8 ESE 28 37 15 20 1022.4 1021.7 0.0
23/08:30am 13.0 6.3 3.9 54 4.2 ESE 28 35 15 19 1022.1 1021.4 0.0
23/08:00am 11.7 5.0 3.5 57 3.7 ESE 28 35 15 19 1021.9 1021.2 0.0
23/07:30am 10.4 4.3 2.7 59 3.3 ESE 24 32 13 17 1021.7 1021.0 0.0

Other Formats:

Comma delimited format used in spreadsheet applications
http://www.bom.gov.au/fwo/IDQ60801/IDQ60801.94341.axf

JavaScript Object Notation format (JSON) in row-major order
http://www.bom.gov.au/fwo/IDQ60801/IDQ60801.94341.json